Time;durP1;ratioP1;P1;durP2;ratioP2;P2;SDS_P1;SDS_P2;PMS_P1;PMS_P2;Temp;Humidity;BMP_temperature;BMP_pressure;BME280_temperature;BME280_humidity;BME280_pressure;Samples;Min_cycle;Max_cycle;Signal;HPM_P1;HPM_P2
2022/08/11 00:01:51;;;;;;;;;;;;;;;28.92;43.71;101352.34;5094046;28;19920;-77
2022/08/11 00:04:20;;;;;;;;;;;;;;;28.92;43.70;101350.47;5094820;28;19919;-77
2022/08/11 00:06:47;;;;;;;;;;;;;;;28.92;43.64;101357.81;5093960;28;19919;-77
2022/08/11 00:09:19;;;;;;;;;;;;;;;28.91;43.53;101354.22;5093917;28;19920;-77
2022/08/11 00:11:48;;;;;;;;;;;;;;;28.92;43.72;101355.06;5095703;28;19920;-77
2022/08/11 00:14:20;;;;;;;;;;;;;;;28.92;43.45;101352.34;5101310;28;19920;-77
2022/08/11 00:16:53;;;;;;;;;;;;;;;28.91;43.57;101343.34;5099899;28;19927;-77
2022/08/11 00:19:21;;;;;;;;;;;;;;;28.91;43.59;101348.78;5099777;28;19920;-77
2022/08/11 00:22:09;;;;;;;;;;;;;;;28.90;43.64;101349.81;5101234;28;19927;-77
2022/08/11 00:24:38;;;;;;;;;;;;;;;28.91;43.49;101348.78;5100677;28;19927;-77
2022/08/11 00:27:35;;;;;;;;;;;;;;;28.91;43.64;101342.50;5099308;28;19924;-77
2022/08/11 00:30:04;;;;;;;;;;;;;;;28.90;43.41;101352.53;5101245;28;19924;-77
2022/08/11 00:32:32;;;;;;;;;;;;;;;28.91;43.70;101358.84;5100557;28;19930;-77
2022/08/11 00:35:00;;;;;;;;;;;;;;;28.91;43.53;101361.56;5100556;28;19927;-77
2022/08/11 00:37:49;;;;;;;;;;;;;;;28.91;43.59;101358.84;5101115;28;19927;-77
2022/08/11 00:40:21;;;;;;;;;;;;;;;28.90;43.40;101363.44;5100431;28;20283;-77
2022/08/11 00:42:58;;;;;;;;;;;;;;;28.89;43.37;101369.94;5101396;28;19920;-77
2022/08/11 00:45:28;;;;;;;;;;;;;;;28.90;43.45;101368.91;5100699;28;19927;-77
2022/08/11 00:47:55;;;;;;;;;;;;;;;28.90;43.57;101366.19;5101546;28;19927;-77
2022/08/11 00:50:26;;;;;;;;;;;;;;;28.90;43.21;101362.59;5101299;28;19919;-77
2022/08/11 00:53:13;;;;;;;;;;;;;;;28.90;43.19;101366.19;5100254;28;19927;-77
2022/08/11 00:56:16;;;;;;;;;;;;;;;28.90;43.60;101370.78;5061753;28;19924;-77
2022/08/11 00:59:02;;;;;;;;;;;;;;;28.89;43.66;101364.50;5018329;28;19921;-77
2022/08/11 01:01:35;;;;;;;;;;;;;;;28.90;43.46;101368.91;5018390;28;19921;-77
2022/08/11 01:04:03;;;;;;;;;;;;;;;28.90;43.53;101368.06;5018111;28;19928;-77
2022/08/11 01:06:48;;;;;;;;;;;;;;;28.89;43.53;101367.22;5017831;28;19937;-77
2022/08/11 01:09:21;;;;;;;;;;;;;;;28.89;43.58;101361.75;5018113;28;19935;-77
2022/08/11 01:12:07;;;;;;;;;;;;;;;28.89;43.60;101367.22;5018629;28;19936;-77
2022/08/11 01:14:40;;;;;;;;;;;;;;;28.90;43.20;101368.06;5018862;28;19921;-77
2022/08/11 01:17:25;;;;;;;;;;;;;;;28.88;43.22;101362.78;5018010;28;19921;-77
2022/08/11 01:20:04;;;;;;;;;;;;;;;28.88;43.64;101365.50;5018213;28;19921;-77
2022/08/11 01:22:57;;;;;;;;;;;;;;;28.88;43.25;101359.19;5016200;28;19925;-77
2022/08/11 01:25:30;;;;;;;;;;;;;;;28.88;43.51;101357.31;5015294;28;19945;-77
2022/08/11 01:28:00;;;;;;;;;;;;;;;28.88;43.54;101357.31;5015382;28;19928;-77
2022/08/11 01:30:27;;;;;;;;;;;;;;;28.88;43.64;101359.19;5014820;28;20413;-77
2022/08/11 01:33:22;;;;;;;;;;;;;;;28.88;43.21;101360.03;5056938;28;19920;-77
2022/08/11 01:36:08;;;;;;;;;;;;;;;28.88;43.19;101360.03;5097253;28;19920;-77
2022/08/11 01:38:41;;;;;;;;;;;;;;;28.87;43.61;101350.19;5096128;28;19927;-77
2022/08/11 01:41:08;;;;;;;;;;;;;;;28.87;43.48;101352.06;5096642;28;19920;-77
2022/08/11 01:46:53;;;;;;;;;;;;;;;28.87;43.13;101350.19;5097355;28;19920;-77
2022/08/11 01:49:24;;;;;;;;;;;;;;;28.87;43.35;101346.63;5095619;28;19927;-77
2022/08/11 01:52:19;;;;;;;;;;;;;;;28.87;43.56;101347.44;5096430;28;20398;-77
2022/08/11 01:55:00;;;;;;;;;;;;;;;28.87;43.43;101347.44;5096672;28;19920;-77
2022/08/11 01:57:33;;;;;;;;;;;;;;;28.86;43.23;101343.03;5096206;28;19920;-77
2022/08/11 02:00:27;;;;;;;;;;;;;;;28.85;43.42;101338.63;5095306;28;20375;-77
2022/08/11 02:02:54;;;;;;;;;;;;;;;28.86;43.42;101343.03;5095334;28;19927;-77
2022/08/11 02:05:48;;;;;;;;;;;;;;;28.85;43.41;101344.06;5095854;28;19920;-77
2022/08/11 02:08:30;;;;;;;;;;;;;;;28.87;43.29;101346.63;5095011;28;19920;-77
2022/08/11 02:13:56;;;;;;;;;;;;;;;28.86;43.42;101348.50;5096677;28;20244;-77
2022/08/11 02:16:23;;;;;;;;;;;;;;;28.85;43.50;101337.78;5096555;28;19920;-77
2022/08/11 02:24:41;;;;;;;;;;;;;;;28.84;43.52;101339.63;5095813;28;19920;-77
2022/08/11 02:27:19;;;;;;;;;;;;;;;28.85;43.39;101344.06;5096027;28;19920;-77
2022/08/11 02:30:07;;;;;;;;;;;;;;;28.85;43.42;101335.06;5094660;28;19927;-77
2022/08/11 02:35:48;;;;;;;;;;;;;;;28.83;43.47;101336.06;5088055;28;19931;-77
2022/08/11 02:38:18;;;;;;;;;;;;;;;28.84;43.54;101326.00;5096434;28;19935;-77
2022/08/11 02:42:21;;;;;;;;;;;;;;;28.83;43.59;101324.31;5095468;28;19920;-77
2022/08/11 02:43:57;;;;;;;;;;;;;;;28.85;43.55;101321.44;5095577;28;19920;-77
2022/08/11 02:46:27;;;;;;;;;;;;;;;28.84;43.36;101331.47;5093988;28;19927;-77
2022/08/11 02:51:59;;;;;;;;;;;;;;;28.83;43.18;101330.63;5093993;28;19920;-77
2022/08/11 02:54:31;;;;;;;;;;;;;;;28.83;43.39;101329.78;5095819;28;19927;-77
2022/08/11 02:56:58;;;;;;;;;;;;;;;28.82;43.25;101331.66;5095769;28;20398;-77
2022/08/11 02:59:49;;;;;;;;;;;;;;;28.83;43.56;101335.22;5094897;28;19920;-77
2022/08/11 03:02:21;;;;;;;;;;;;;;;28.83;43.19;101340.66;5095713;28;20376;-77
2022/08/11 03:04:51;;;;;;;;;;;;;;;28.82;43.23;101334.38;5094985;28;19920;-77
2022/08/11 03:07:33;;;;;;;;;;;;;;;28.82;43.47;101339.00;5095709;28;19920;-77
2022/08/11 03:10:04;;;;;;;;;;;;;;;28.82;43.33;101333.53;5093668;28;19920;-77
2022/08/11 03:18:26;;;;;;;;;;;;;;;28.82;43.19;101322.63;5095056;28;19920;-77
2022/08/11 03:21:01;;;;;;;;;;;;;;;28.81;43.43;101316.34;5094736;28;20363;-77
2022/08/11 03:23:37;;;;;;;;;;;;;;;28.81;43.51;101315.50;5094997;28;20394;-77
2022/08/11 03:26:12;;;;;;;;;;;;;;;28.80;43.23;101302.88;5094890;28;19927;-77
2022/08/11 03:28:39;;;;;;;;;;;;;;;28.80;43.49;101311.94;5093338;28;19920;-77
2022/08/11 03:31:13;;;;;;;;;;;;;;;28.80;43.16;101309.22;5093641;28;19920;-77
2022/08/11 03:34:01;;;;;;;;;;;;;;;28.80;43.38;101302.88;5094385;28;19919;-77
2022/08/11 03:36:52;;;;;;;;;;;;;;;28.81;43.60;101310.06;5094960;28;19924;-77
2022/08/11 03:39:39;;;;;;;;;;;;;;;28.80;43.48;101311.06;5093410;28;20364;-77
2022/08/11 03:42:25;;;;;;;;;;;;;;;28.80;43.49;101320.09;5079209;28;19920;-77
2022/08/11 03:45:14;;;;;;;;;;;;;;;28.79;43.38;101317.53;5094393;28;19920;-77
2022/08/11 03:47:57;;;;;;;;;;;;;;;28.80;43.55;101322.84;5092175;28;20370;-77
2022/08/11 03:50:36;;;;;;;;;;;;;;;28.79;43.28;101317.53;5095150;28;19943;-77
2022/08/11 03:53:06;;;;;;;;;;;;;;;28.80;43.30;101319.22;5094599;28;19924;-77
2022/08/11 03:55:57;;;;;;;;;;;;;;;28.79;43.50;101318.38;5093658;28;19924;-77
2022/08/11 03:58:45;;;;;;;;;;;;;;;28.79;43.33;101323.00;5094049;28;19927;-77
2022/08/11 04:01:18;;;;;;;;;;;;;;;28.79;43.21;101325.72;5093864;28;20368;-77
2022/08/11 04:03:56;;;;;;;;;;;;;;;28.78;43.18;101326.75;5094442;28;20279;-77
2022/08/11 04:06:23;;;;;;;;;;;;;;;28.79;43.21;101323.00;5093945;28;19924;-77
2022/08/11 04:08:58;;;;;;;;;;;;;;;28.78;43.64;101318.59;5094300;28;19920;-77
2022/08/11 04:11:25;;;;;;;;;;;;;;;28.78;43.53;101319.44;5094353;28;19934;-77
2022/08/11 04:17:06;;;;;;;;;;;;;;;28.78;43.53;101327.59;5094021;28;19927;-77
2022/08/11 04:19:33;;;;;;;;;;;;;;;28.78;43.22;101322.16;5094847;28;19939;-77
2022/08/11 04:22:12;;;;;;;;;;;;;;;28.77;43.56;101323.19;5092775;28;19920;-77
2022/08/11 04:24:58;;;;;;;;;;;;;;;28.78;43.18;101330.31;5094181;28;20264;-77
2022/08/11 04:27:43;;;;;;;;;;;;;;;28.78;43.56;101334.94;5093774;28;20264;-77
2022/08/11 04:30:16;;;;;;;;;;;;;;;28.77;43.44;101331.38;5094418;28;19924;-77
2022/08/11 04:33:02;;;;;;;;;;;;;;;28.77;43.23;101342.25;5094380;28;19931;-77
2022/08/11 04:35:42;;;;;;;;;;;;;;;28.77;43.56;101330.53;5094433;28;19920;-77
2022/08/11 04:38:34;;;;;;;;;;;;;;;28.77;43.34;101342.25;5094693;28;19920;-77
2022/08/11 04:41:17;;;;;;;;;;;;;;;28.78;43.24;101340.38;5092897;28;19920;-77
2022/08/11 04:43:56;;;;;;;;;;;;;;;28.77;43.52;101349.59;5094297;28;19931;-77
2022/08/11 04:46:50;;;;;;;;;;;;;;;28.77;43.49;101346.88;5092611;28;19920;-77
2022/08/11 05:01:42;;;;;;;;;;;;;;;28.75;43.20;101363.38;5097410;28;19927;-77
2022/08/11 05:07:33;;;;;;;;;;;;;;;28.75;43.15;101371.56;5097758;28;19927;-77
2022/08/11 05:10:19;;;;;;;;;;;;;;;28.75;43.30;101376.16;5096042;28;19927;-77
2022/08/11 05:27:09;;;;;;;;;;;;;;;28.74;43.27;101358.97;5096150;28;19920;-77
2022/08/11 05:36:19;;;;;;;;;;;;;;;28.74;43.30;101363.56;5095461;28;19919;-77
2022/08/11 05:58:38;;;;;;;;;;;;;;;28.73;43.29;101357.28;5096159;28;19920;-77
2022/08/11 06:01:11;;;;;;;;;;;;;;;28.72;43.67;101357.44;5096594;28;19927;-77
2022/08/11 06:06:28;;;;;;;;;;;;;;;28.72;43.44;101355.56;5096360;28;19927;-77
2022/08/11 06:08:56;;;;;;;;;;;;;;;28.72;43.23;101352.00;5095680;28;19924;-77
2022/08/11 06:11:24;;;;;;;;;;;;;;;28.72;43.53;101360.16;5096318;28;19920;-77
2022/08/11 06:14:10;;;;;;;;;;;;;;;28.72;43.62;101361.00;5094996;28;20287;-77
2022/08/11 06:16:39;;;;;;;;;;;;;;;28.72;43.54;101369.19;5095983;28;19920;-77
2022/08/11 06:19:07;;;;;;;;;;;;;;;28.73;43.52;101359.16;5095930;28;19927;-77
2022/08/11 06:21:35;;;;;;;;;;;;;;;28.72;43.33;101368.34;5096778;28;19919;-77
2022/08/11 06:24:12;;;;;;;;;;;;;;;28.72;43.51;101357.44;5096431;28;19927;-77
2022/08/11 06:26:40;;;;;;;;;;;;;;;28.71;43.25;101356.59;5095993;28;19920;-77
2022/08/11 06:29:29;;;;;;;;;;;;;;;28.71;43.70;101353.88;5096621;28;19927;-77
2022/08/11 06:32:04;;;;;;;;;;;;;;;28.71;43.36;101356.59;5094377;28;20295;-77
2022/08/11 06:34:34;;;;;;;;;;;;;;;28.72;43.62;101349.28;5095613;28;19942;-77
2022/08/11 06:37:13;;;;;;;;;;;;;;;28.72;43.36;101341.94;5096436;28;20356;-77
2022/08/11 06:39:43;;;;;;;;;;;;;;;28.71;43.34;101344.84;5096137;28;19920;-77
2022/08/11 06:42:22;;;;;;;;;;;;;;;28.71;43.36;101337.53;5095552;28;19920;-77
2022/08/11 06:45:03;;;;;;;;;;;;;;;28.72;43.41;101332.91;5094569;28;19927;-77
2022/08/11 06:47:31;;;;;;;;;;;;;;;28.71;43.47;101339.41;5096047;28;19920;-77
2022/08/11 06:52:46;;;;;;;;;;;;;;;28.72;43.49;101335.66;5095868;28;19927;-77
2022/08/11 07:00:26;;;;;;;;;;;;;;;28.71;43.70;101342.97;5095150;28;19920;-77
2022/08/11 07:01:14;;;;;;;;;;;;;;;28.71;43.50;101353.03;5095721;28;19920;-77
2022/08/11 07:03:44;;;;;;;;;;;;;;;28.71;43.81;101355.75;5095069;28;19920;-77
2022/08/11 07:06:31;;;;;;;;;;;;;;;28.72;43.77;101354.72;5094969;28;19927;-77
2022/08/11 07:30:12;;;;;;;;;;;;;;;28.71;43.64;101333.97;5094953;28;19919;-77
2022/08/11 07:32:49;;;;;;;;;;;;;;;28.70;43.60;101335.84;5094582;28;19927;-77
2022/08/11 07:35:20;;;;;;;;;;;;;;;28.70;43.53;101335.00;5095373;28;19920;-77
2022/08/11 07:37:52;;;;;;;;;;;;;;;28.70;43.68;101326.81;5095092;28;19927;-77
2022/08/11 07:40:29;;;;;;;;;;;;;;;28.70;43.64;101333.13;5093036;28;20379;-77
2022/08/11 07:42:58;;;;;;;;;;;;;;;28.70;43.68;101332.28;5094692;28;19924;-77
2022/08/11 07:53:46;;;;;;;;;;;;;;;28.70;43.65;101330.38;5094673;28;19920;-77
2022/08/11 07:56:31;;;;;;;;;;;;;;;28.69;43.98;101331.44;5094758;28;19920;-77
2022/08/11 08:19:02;;;;;;;;;;;;;;;28.70;43.57;101321.38;5094832;28;20382;-77
2022/08/11 08:21:30;;;;;;;;;;;;;;;28.69;43.63;101316.97;5092603;28;19927;-77
2022/08/11 08:23:58;;;;;;;;;;;;;;;28.69;43.83;101312.34;5092383;28;19927;-77
2022/08/11 08:32:06;;;;;;;;;;;;;;;28.70;43.56;101321.38;5094978;28;19935;-78
2022/08/11 08:34:35;;;;;;;;;;;;;;;28.70;43.72;101314.03;5098494;28;19920;-78
2022/08/11 08:37:04;;;;;;;;;;;;;;;28.69;43.96;101314.25;5097978;28;19927;-78
2022/08/11 08:39:52;;;;;;;;;;;;;;;28.70;43.99;101324.09;5098049;28;19919;-77
2022/08/11 08:42:24;;;;;;;;;;;;;;;28.69;43.65;101306.91;5097798;28;19927;-77
2022/08/11 08:44:57;;;;;;;;;;;;;;;28.69;43.62;101300.63;5098365;28;19920;-77
2022/08/11 08:47:26;;;;;;;;;;;;;;;28.70;43.62;101313.19;5096429;28;20371;-77
2022/08/11 08:50:10;;;;;;;;;;;;;;;28.69;43.51;101306.06;5098245;28;19920;-77
2022/08/11 08:52:46;;;;;;;;;;;;;;;28.69;43.99;101311.50;5096515;28;19920;-77
2022/08/11 08:55:17;;;;;;;;;;;;;;;28.70;43.81;101313.19;5098199;28;20273;-77
2022/08/11 08:57:47;;;;;;;;;;;;;;;28.70;43.52;101310.47;5097676;28;19927;-77
2022/08/11 09:00:15;;;;;;;;;;;;;;;28.70;43.71;101316.75;5098008;28;20382;-77
2022/08/11 09:02:48;;;;;;;;;;;;;;;28.69;43.50;101311.50;5097927;28;20279;-77
2022/08/11 09:05:17;;;;;;;;;;;;;;;28.70;43.53;101305.88;5097254;28;20268;-79
2022/08/11 09:07:46;;;;;;;;;;;;;;;28.69;43.60;101303.34;5096089;28;19927;-79
2022/08/11 09:10:16;;;;;;;;;;;;;;;28.70;43.66;101307.75;5096147;28;19920;-79
2022/08/11 09:12:43;;;;;;;;;;;;;;;28.69;43.57;101311.50;5097231;28;19927;-77
2022/08/11 09:15:12;;;;;;;;;;;;;;;28.70;43.74;101296.84;5095843;28;19920;-77
2022/08/11 09:17:40;;;;;;;;;;;;;;;28.70;43.45;101302.31;5097677;28;19920;-77
2022/08/11 09:20:28;;;;;;;;;;;;;;;28.69;43.57;101292.44;5096923;28;19927;-79
2022/08/11 09:28:57;;;;;;;;;;;;;;;28.70;43.36;101303.16;5096889;28;19920;-79
2022/08/11 09:31:25;;;;;;;;;;;;;;;28.69;43.53;101287.84;5095673;28;19927;-79
2022/08/11 09:33:53;;;;;;;;;;;;;;;28.69;43.24;101290.56;5095680;28;19920;-79
2022/08/11 09:41:53;;;;;;;;;;;;;;;28.69;43.57;101279.66;5096961;28;19920;-79
2022/08/11 09:44:46;;;;;;;;;;;;;;;28.71;43.33;101284.91;5094642;28;19920;-79
2022/08/11 09:47:17;;;;;;;;;;;;;;;28.70;43.36;101288.69;5097103;28;20291;-79
2022/08/11 09:49:47;;;;;;;;;;;;;;;28.69;43.29;101276.94;5096234;28;19920;-79
2022/08/11 09:52:14;;;;;;;;;;;;;;;28.69;43.45;101276.09;5096387;28;19924;-79
2022/08/11 09:54:42;;;;;;;;;;;;;;;28.70;43.72;101272.34;5096996;28;19920;-77
2022/08/11 10:00:04;;;;;;;;;;;;;;;28.68;43.39;101258.88;5096338;28;19920;-79
2022/08/11 10:02:42;;;;;;;;;;;;;;;28.69;43.71;101257.88;5096866;28;19935;-77
2022/08/11 10:07:57;;;;;;;;;;;;;;;28.70;43.64;101255.97;5096771;28;19920;-79
2022/08/11 10:10:24;;;;;;;;;;;;;;;28.68;43.50;101247.13;5078270;28;19927;-77
2022/08/11 10:13:03;;;;;;;;;;;;;;;28.70;43.62;101258.72;5096611;28;19920;-77
2022/08/11 10:15:35;;;;;;;;;;;;;;;28.70;43.42;101250.53;5094720;28;19927;-79
2022/08/11 10:20:52;;;;;;;;;;;;;;;28.69;43.74;101243.41;5096573;28;19926;-77
2022/08/11 10:34:58;;;;;;;;;;;;;;;28.69;43.45;101227.06;5095617;28;19927;-77
2022/08/11 10:37:29;;;;;;;;;;;;;;;28.69;43.12;101230.63;5094627;28;19927;-77
2022/08/11 10:40:21;;;;;;;;;;;;;;;28.69;43.26;101221.59;5095893;28;20264;-77
2022/08/11 10:43:06;;;;;;;;;;;;;;;28.69;43.54;101219.72;5094477;28;20410;-77
2022/08/11 10:48:24;;;;;;;;;;;;;;;28.69;43.39;101216.16;5095548;28;19927;-77
2022/08/11 10:59:17;;;;;;;;;;;;;;;28.69;43.33;101205.25;5095418;28;19943;-77
2022/08/11 11:01:44;;;;;;;;;;;;;;;28.69;43.13;101210.72;5093828;28;19953;-77
2022/08/11 11:04:17;;;;;;;;;;;;;;;28.69;42.87;101213.44;5094980;28;19927;-77
2022/08/11 11:06:44;;;;;;;;;;;;;;;28.69;43.20;101207.97;5094938;28;19986;-77
2022/08/11 11:09:16;;;;;;;;;;;;;;;28.69;42.81;101199.81;5095746;28;19920;-77
2022/08/11 11:20:19;;;;;;;;;;;;;;;28.68;42.79;101193.50;5095395;28;19920;-77
2022/08/11 11:23:15;;;;;;;;;;;;;;;28.69;42.65;101197.94;5095351;28;19928;-77
2022/08/11 11:26:09;;;;;;;;;;;;;;;28.69;43.08;101197.94;5095556;28;20237;-77
2022/08/11 11:28:48;;;;;;;;;;;;;;;28.69;42.95;101188.91;5094474;28;20245;-77
2022/08/11 11:31:29;;;;;;;;;;;;;;;28.69;43.13;101186.19;5094772;28;20375;-77
2022/08/11 11:33:56;;;;;;;;;;;;;;;28.68;43.02;101185.31;5095413;28;20275;-77
2022/08/11 11:36:38;;;;;;;;;;;;;;;28.69;42.99;101180.75;5093438;28;19931;-77
2022/08/11 11:39:06;;;;;;;;;;;;;;;28.69;43.11;101172.56;5094476;28;19924;-77
2022/08/11 11:41:34;;;;;;;;;;;;;;;28.68;43.42;101170.84;5094435;28;20367;-77
2022/08/11 11:44:01;;;;;;;;;;;;;;;28.68;43.38;101168.97;5094410;28;19920;-77
2022/08/11 11:46:30;;;;;;;;;;;;;;;28.67;43.21;101164.56;5094243;28;20383;-77
2022/08/11 11:49:07;;;;;;;;;;;;;;;28.68;43.02;101174.41;5095175;28;19927;-77
2022/08/11 11:51:47;;;;;;;;;;;;;;;28.68;42.87;101159.94;5095142;28;19927;-77
2022/08/11 11:54:16;;;;;;;;;;;;;;;28.68;43.14;101163.50;5095133;28;19935;-78
2022/08/11 11:56:44;;;;;;;;;;;;;;;28.68;43.07;101155.34;5092906;28;19920;-78
2022/08/11 12:01:58;;;;;;;;;;;;;;;28.68;42.86;101158.06;5094122;28;19927;-78
2022/08/11 12:04:26;;;;;;;;;;;;;;;28.68;42.87;101152.63;5094178;28;19920;-78
2022/08/11 12:08:08;;;;;;;;;;;;;;;28.68;43.22;101152.63;5093775;28;19920;-78
2022/08/11 12:09:41;;;;;;;;;;;;;;;28.69;43.11;101156.22;5092539;28;19927;-78
2022/08/11 12:14:54;;;;;;;;;;;;;;;28.68;43.11;101133.56;5094228;28;20379;-78
2022/08/11 12:17:22;;;;;;;;;;;;;;;28.69;43.43;101128.97;5094565;28;19920;-78
2022/08/11 12:19:49;;;;;;;;;;;;;;;28.69;43.07;101139.88;5094793;28;19931;-78
2022/08/11 12:27:48;;;;;;;;;;;;;;;28.68;43.02;101133.56;5092618;28;19920;-78
2022/08/11 12:30:17;;;;;;;;;;;;;;;28.68;43.18;101129.97;5093726;28;19927;-78
2022/08/11 12:32:45;;;;;;;;;;;;;;;28.69;43.09;101131.69;5094635;28;19924;-78
2022/08/11 12:35:13;;;;;;;;;;;;;;;28.68;43.40;101125.38;5094328;28;19920;-78
2022/08/11 12:37:46;;;;;;;;;;;;;;;28.68;43.26;101128.09;5093720;28;19920;-78
2022/08/11 12:46:30;;;;;;;;;;;;;;;28.68;43.32;101111.75;5093943;28;19920;-78
2022/08/11 12:51:57;;;;;;;;;;;;;;;28.69;43.24;101104.44;5093902;28;19920;-78
2022/08/11 12:54:56;;;;;;;;;;;;;;;28.68;43.35;101103.56;5094480;28;19931;-78
2022/08/11 13:05:57;;;;;;;;;;;;;;;28.68;43.20;101089.13;5092126;28;19920;-78
2022/08/11 13:08:25;;;;;;;;;;;;;;;28.68;42.89;101094.56;5092459;28;19920;-78
2022/08/11 13:13:41;;;;;;;;;;;;;;;28.68;43.02;101084.50;5093383;28;19927;-78
2022/08/11 13:16:28;;;;;;;;;;;;;;;28.68;43.15;101078.22;5093812;28;19920;-77
2022/08/11 13:18:56;;;;;;;;;;;;;;;28.68;42.70;101072.78;5093984;28;19942;-77
2022/08/11 13:21:24;;;;;;;;;;;;;;;28.68;42.97;101067.31;5096892;28;19920;-77
2022/08/11 13:23:53;;;;;;;;;;;;;;;28.67;42.62;101066.47;5097830;28;19920;-78
2022/08/11 13:26:33;;;;;;;;;;;;;;;28.68;42.61;101061.88;5096110;28;20025;-78
2022/08/11 13:29:24;;;;;;;;;;;;;;;28.68;42.61;101059.16;5095914;28;20283;-78
2022/08/11 13:31:58;;;;;;;;;;;;;;;28.68;42.54;101057.25;5097317;28;19920;-78
2022/08/11 13:34:27;;;;;;;;;;;;;;;28.68;42.62;101053.69;5097396;28;19920;-78
2022/08/11 13:36:55;;;;;;;;;;;;;;;28.68;42.73;101057.25;5095530;28;20367;-78
2022/08/11 13:39:24;;;;;;;;;;;;;;;28.68;42.71;101042.81;5095676;28;19919;-78
2022/08/11 13:41:56;;;;;;;;;;;;;;;28.68;42.63;101051.81;5096629;28;20394;-78
2022/08/11 13:44:26;;;;;;;;;;;;;;;28.68;42.64;101034.63;5097195;28;20364;-78
2022/08/11 13:46:57;;;;;;;;;;;;;;;28.68;42.66;101040.91;5096455;28;19920;-78
2022/08/11 13:49:25;;;;;;;;;;;;;;;28.68;42.70;101040.91;5096776;28;19920;-78
2022/08/11 13:51:54;;;;;;;;;;;;;;;28.69;42.90;101036.34;5096048;28;19920;-78
2022/08/11 13:54:23;;;;;;;;;;;;;;;28.68;42.76;101027.31;5095334;28;19931;-78
2022/08/11 13:56:52;;;;;;;;;;;;;;;28.68;42.76;101026.47;5096198;28;19927;-78
2022/08/11 13:59:21;;;;;;;;;;;;;;;28.69;42.99;101022.72;5096657;28;19927;-78
2022/08/11 14:01:54;;;;;;;;;;;;;;;28.69;42.85;101020.84;5096596;28;19943;-78
2022/08/11 14:04:44;;;;;;;;;;;;;;;28.67;43.07;101012.00;5096586;28;19927;-78
2022/08/11 14:07:13;;;;;;;;;;;;;;;28.69;42.78;101014.56;5096104;28;19932;-78
2022/08/11 14:09:42;;;;;;;;;;;;;;;28.67;42.78;101016.59;5096124;28;20280;-78
2022/08/11 14:15:02;;;;;;;;;;;;;;;28.69;42.60;101020.00;5097023;28;19927;-78
2022/08/11 14:17:35;;;;;;;;;;;;;;;28.68;42.57;101010.13;5095153;28;19920;-78
2022/08/11 14:20:16;;;;;;;;;;;;;;;28.69;42.81;101014.56;5096201;28;19924;-78
2022/08/11 14:23:03;;;;;;;;;;;;;;;28.68;42.88;101002.78;5095862;28;19920;-78
2022/08/11 14:25:30;;;;;;;;;;;;;;;28.68;42.64;100996.50;5095845;28;20295;-78
2022/08/11 14:28:17;;;;;;;;;;;;;;;28.68;42.76;100993.75;5095115;28;19919;-78
2022/08/11 14:31:01;;;;;;;;;;;;;;;28.69;43.00;100992.75;5096160;28;20241;-77
2022/08/11 14:33:31;;;;;;;;;;;;;;;28.68;42.68;100994.59;5095722;28;20292;-78
2022/08/11 14:36:19;;;;;;;;;;;;;;;28.68;42.62;100999.22;5096192;28;20271;-78
2022/08/11 14:38:47;;;;;;;;;;;;;;;28.67;42.94;100984.75;5096081;28;20394;-77
2022/08/11 14:47:04;;;;;;;;;;;;;;;28.68;42.80;100982.88;5096077;28;19920;-77
2022/08/11 14:49:53;;;;;;;;;;;;;;;28.68;42.66;100978.25;5095690;28;19924;-78
2022/08/11 14:52:58;;;;;;;;;;;;;;;28.68;42.49;100988.31;5095984;28;19920;-78
2022/08/11 14:58:18;;;;;;;;;;;;;;;28.67;42.40;100976.56;5095176;28;19947;-78
2022/08/11 15:00:48;;;;;;;;;;;;;;;28.68;42.52;100978.25;5095819;28;19920;-78
2022/08/11 15:03:16;;;;;;;;;;;;;;;28.67;42.77;100970.28;5093857;28;19920;-78
2022/08/11 15:05:46;;;;;;;;;;;;;;;28.67;42.36;100971.13;5093888;28;20428;-78
2022/08/11 15:08:53;;;;;;;;;;;;;;;28.67;42.70;100975.75;5095182;28;19920;-78
2022/08/11 15:14:02;;;;;;;;;;;;;;;28.67;42.53;100976.56;5095320;28;19927;-78
2022/08/11 15:19:19;;;;;;;;;;;;;;;28.68;42.32;100961.06;5093583;28;19927;-78
2022/08/11 15:24:35;;;;;;;;;;;;;;;28.68;42.67;100966.53;5094695;28;19927;-78
2022/08/11 15:38:41;;;;;;;;;;;;;;;28.67;42.54;100954.78;5094570;28;20379;-78
2022/08/11 15:46:44;;;;;;;;;;;;;;;28.68;42.61;100958.34;5095013;28;19943;-78
2022/08/11 15:49:17;;;;;;;;;;;;;;;28.68;42.62;100963.81;5094310;28;19947;-78
2022/08/11 15:51:55;;;;;;;;;;;;;;;28.68;42.85;100958.34;5094584;28;19920;-78
2022/08/11 15:54:29;;;;;;;;;;;;;;;28.69;42.99;100960.06;5094839;28;20002;-78
2022/08/11 15:56:59;;;;;;;;;;;;;;;28.67;42.63;100943.88;5094755;28;19927;-78
2022/08/11 16:05:13;;;;;;;;;;;;;;;28.68;42.93;100953.75;5084146;28;19920;-78
2022/08/11 16:08:01;;;;;;;;;;;;;;;28.68;42.87;100953.75;5094036;28;19941;-78
2022/08/11 16:10:29;;;;;;;;;;;;;;;28.68;42.88;100947.47;5094364;28;19920;-78
2022/08/11 16:18:39;;;;;;;;;;;;;;;28.68;42.77;100939.28;5094861;28;19920;-78
2022/08/11 16:21:08;;;;;;;;;;;;;;;28.68;42.57;100945.56;5094230;28;20387;-77
2022/08/11 16:23:56;;;;;;;;;;;;;;;28.68;42.70;100937.41;5094276;28;19927;-78
2022/08/11 16:26:24;;;;;;;;;;;;;;;28.67;42.54;100941.16;5094479;28;19927;-78
2022/08/11 16:29:11;;;;;;;;;;;;;;;28.68;42.68;100931.94;5094774;28;19927;-78
2022/08/11 16:31:40;;;;;;;;;;;;;;;28.68;42.87;100933.84;5094679;28;19920;-78
2022/08/11 16:38:33;;;;;;;;;;;;;;;28.68;42.66;100936.56;5094395;28;20272;-78
2022/08/11 16:39:46;;;;;;;;;;;;;;;28.67;42.96;100933.00;5094556;28;19941;-78
2022/08/11 16:48:09;;;;;;;;;;;;;;;28.67;42.74;100929.44;5092342;28;20367;-78
2022/08/11 16:50:59;;;;;;;;;;;;;;;28.68;42.56;100928.38;5093572;28;19920;-78
2022/08/11 16:53:28;;;;;;;;;;;;;;;28.68;42.58;100925.66;5094977;28;19920;-78
2022/08/11 16:56:19;;;;;;;;;;;;;;;28.67;42.61;100927.53;5097271;28;19924;-78
2022/08/11 17:01:43;;;;;;;;;;;;;;;28.68;42.71;100920.22;5097507;28;19920;-78
2022/08/11 17:13:22;;;;;;;;;;;;;;;28.69;42.55;100924.66;5075803;28;19920;-78
2022/08/11 17:16:06;;;;;;;;;;;;;;;28.68;42.60;100923.78;5057668;28;19927;-78
2022/08/11 17:18:39;;;;;;;;;;;;;;;28.68;42.64;100922.94;5075315;28;19920;-78
2022/08/11 17:21:11;;;;;;;;;;;;;;;28.67;42.50;100927.53;5075375;28;19920;-78
2022/08/11 17:23:46;;;;;;;;;;;;;;;28.68;42.60;100920.22;5057682;28;19929;-78
2022/08/11 17:26:18;;;;;;;;;;;;;;;28.68;42.57;100922.94;5075035;28;19943;-78
2022/08/11 17:28:50;;;;;;;;;;;;;;;28.68;42.55;100926.50;5075483;28;19927;-78
2022/08/11 17:36:53;;;;;;;;;;;;;;;28.68;42.49;100931.94;5058161;28;19920;-78
2022/08/11 17:39:22;;;;;;;;;;;;;;;28.68;42.61;100928.38;5057424;28;19921;-78
2022/08/11 17:50:09;;;;;;;;;;;;;;;28.68;42.62;100931.09;5097197;28;19920;-78
2022/08/11 18:01:07;;;;;;;;;;;;;;;28.68;42.48;100922.94;5097011;28;19920;-78
2022/08/11 18:03:38;;;;;;;;;;;;;;;28.67;42.86;100930.28;5096145;28;19920;-78
2022/08/11 18:06:07;;;;;;;;;;;;;;;28.68;42.74;100933.84;5095826;28;20291;-78
